createdAt,value
2023-04-11T00:01:29.930Z,14.45
2023-04-11T00:03:58.565Z,19.30
2023-04-11T00:06:26.839Z,15.63
2023-04-11T00:08:55.726Z,18.40
2023-04-11T00:11:24.551Z,22.20
2023-04-11T00:13:54.177Z,19.75
2023-04-11T00:16:27.001Z,16.75
2023-04-11T00:18:57.927Z,15.10
2023-04-11T00:21:27.439Z,20.05
2023-04-11T00:23:59.367Z,13.88
2023-04-11T00:26:27.976Z,19.15
2023-04-11T00:28:57.134Z,15.77
2023-04-11T00:31:25.315Z,19.83
2023-04-11T00:33:53.483Z,19.00
2023-04-11T00:36:22.112Z,14.13
2023-04-11T00:38:50.425Z,15.35
2023-04-11T00:41:19.576Z,19.35
2023-04-11T00:43:49.905Z,16.00
2023-04-11T00:46:18.198Z,14.73
2023-04-11T00:48:47.218Z,11.90
2023-04-11T00:51:24.975Z,14.10
2023-04-11T00:53:54.270Z,20.35
2023-04-11T00:56:23.391Z,20.27
2023-04-11T00:58:58.022Z,15.77
2023-04-11T01:01:26.977Z,15.55
2023-04-11T01:03:57.388Z,18.40
2023-04-11T01:06:26.617Z,13.38
2023-04-11T01:08:57.423Z,16.83
2023-04-11T01:11:26.502Z,22.55
2023-04-11T01:13:55.303Z,24.58
2023-04-11T01:16:24.211Z,24.70
2023-04-11T01:18:53.530Z,18.48
2023-04-11T01:21:21.763Z,12.10
2023-04-11T01:23:52.989Z,16.08
2023-04-11T01:26:21.871Z,17.60
2023-04-11T01:28:49.943Z,15.93
2023-04-11T01:31:20.040Z,12.00
2023-04-11T01:33:48.973Z,20.90
2023-04-11T01:36:17.366Z,18.17
2023-04-11T01:38:47.316Z,20.63
2023-04-11T01:41:16.730Z,16.73
2023-04-11T01:43:48.187Z,21.85
2023-04-11T01:46:17.144Z,15.02
2023-04-11T01:48:45.962Z,18.20
2023-04-11T01:51:14.227Z,15.45
2023-04-11T01:53:42.274Z,17.83
2023-04-11T01:56:12.796Z,14.45
2023-04-11T01:58:42.220Z,14.90
2023-04-11T02:01:13.281Z,14.43
2023-04-11T02:03:43.169Z,17.00
2023-04-11T02:06:11.255Z,15.45
2023-04-11T02:08:43.712Z,14.68
2023-04-11T02:11:12.212Z,19.05
2023-04-11T02:14:00.148Z,16.45
2023-04-11T02:16:30.264Z,17.67
2023-04-11T02:18:58.417Z,17.33
2023-04-11T02:21:27.023Z,16.40
2023-04-11T02:23:56.398Z,17.05
2023-04-11T02:26:27.025Z,19.98
2023-04-11T02:28:58.438Z,16.92
2023-04-11T02:31:26.961Z,14.75
2023-04-11T02:33:55.353Z,13.80
2023-04-11T02:36:23.291Z,16.38
2023-04-11T02:39:00.863Z,21.05
2023-04-11T02:41:31.072Z,14.07
2023-04-11T02:44:02.277Z,14.65
2023-04-11T02:46:30.756Z,14.27
2023-04-11T02:49:00.147Z,14.40
2023-04-11T02:51:31.104Z,19.85
2023-04-11T02:53:59.732Z,18.85
2023-04-11T02:56:31.797Z,19.55
2023-04-11T02:59:00.883Z,16.20
2023-04-11T03:01:30.865Z,17.27
2023-04-11T03:04:00.690Z,20.25
2023-04-11T03:06:39.600Z,27.92
2023-04-11T03:09:09.208Z,24.42
2023-04-11T03:11:38.519Z,21.95
2023-04-11T03:14:07.212Z,24.02
2023-04-11T03:16:37.973Z,21.00
2023-04-11T03:19:06.414Z,23.08
2023-04-11T03:21:35.061Z,31.65
2023-04-11T03:24:04.160Z,26.38
2023-04-11T03:26:34.830Z,26.20
2023-04-11T03:29:10.289Z,28.48
2023-04-11T03:31:52.061Z,36.55
2023-04-11T03:34:20.284Z,34.40
2023-04-11T03:36:49.872Z,32.22
2023-04-11T03:39:20.066Z,36.00
2023-04-11T03:41:51.350Z,41.40
2023-04-11T03:44:22.378Z,40.33
2023-04-11T03:46:52.869Z,42.92
2023-04-11T03:49:21.405Z,36.13
2023-04-11T03:51:55.125Z,34.80
2023-04-11T03:54:23.125Z,35.70
2023-04-11T03:56:51.672Z,41.40
2023-04-11T03:59:25.685Z,35.05
2023-04-11T04:02:08.360Z,38.67
2023-04-11T04:04:43.813Z,36.70
2023-04-11T04:07:24.068Z,39.05
2023-04-11T04:09:58.010Z,34.80
2023-04-11T04:12:28.562Z,34.95
2023-04-11T04:15:22.216Z,30.52
2023-04-11T04:17:53.213Z,34.60
2023-04-11T04:20:30.026Z,32.40
2023-04-11T04:23:05.735Z,27.63
2023-04-11T04:26:02.382Z,27.38
2023-04-11T04:28:34.412Z,29.77
2023-04-11T04:31:05.749Z,33.78
2023-04-11T04:33:42.992Z,33.05
2023-04-11T04:36:28.759Z,30.25
2023-04-11T04:39:02.336Z,26.48
2023-04-11T04:41:37.845Z,26.23
2023-04-11T04:44:06.273Z,26.58
2023-04-11T04:46:41.537Z,28.85
2023-04-11T04:49:10.652Z,29.67
2023-04-11T04:51:40.789Z,22.33
2023-04-11T04:54:11.975Z,23.60
2023-04-11T04:56:42.207Z,23.90
2023-04-11T04:59:20.202Z,20.95
2023-04-11T05:01:56.430Z,24.50
2023-04-11T05:04:34.463Z,17.30
2023-04-11T05:07:05.473Z,14.38
2023-04-11T05:09:42.255Z,14.25
2023-04-11T05:12:16.192Z,16.13
2023-04-11T05:14:45.243Z,15.05
2023-04-11T05:17:19.719Z,13.90
2023-04-11T05:19:51.991Z,17.55
2023-04-11T05:22:22.416Z,16.73
2023-04-11T05:24:57.252Z,16.48
2023-04-11T05:27:27.613Z,21.75
2023-04-11T05:29:57.411Z,15.65
2023-04-11T05:32:27.277Z,13.18
2023-04-11T05:34:59.116Z,14.60
2023-04-11T05:37:50.815Z,16.42
2023-04-11T05:40:19.273Z,17.88
2023-04-11T05:42:47.303Z,20.42
2023-04-11T05:45:19.541Z,21.83
2023-04-11T05:47:48.403Z,18.75
2023-04-11T05:50:16.599Z,20.77
2023-04-11T05:52:45.373Z,21.10
2023-04-11T05:55:14.315Z,17.77
2023-04-11T05:57:42.300Z,19.75
2023-04-11T06:00:16.533Z,22.33
2023-04-11T06:03:05.437Z,18.80
2023-04-11T06:05:35.352Z,14.95
2023-04-11T06:08:04.210Z,16.90
2023-04-11T06:10:32.398Z,16.48
2023-04-11T06:13:00.446Z,17.20
2023-04-11T06:15:29.300Z,10.82
2023-04-11T06:17:57.576Z,15.82
2023-04-11T06:20:26.932Z,17.42
2023-04-11T06:22:57.177Z,15.32
2023-04-11T06:25:25.676Z,15.38
2023-04-11T06:27:54.330Z,16.38
2023-04-11T06:30:22.324Z,19.52
2023-04-11T06:32:57.195Z,15.85
2023-04-11T06:35:27.624Z,12.00
2023-04-11T06:38:20.234Z,17.55
2023-04-11T06:40:51.685Z,12.15
2023-04-11T06:43:19.954Z,20.15
2023-04-11T06:45:49.907Z,15.63
2023-04-11T06:48:18.356Z,12.95
2023-04-11T06:50:46.386Z,17.15
2023-04-11T06:53:16.563Z,17.33
2023-04-11T06:55:50.116Z,16.23
2023-04-11T06:58:18.283Z,14.38
2023-04-11T07:00:47.137Z,26.65
2023-04-11T07:03:16.793Z,18.48
2023-04-11T07:05:45.166Z,18.88
2023-04-11T07:08:15.776Z,25.92
2023-04-11T07:10:46.671Z,21.00
2023-04-11T07:13:15.832Z,16.15
2023-04-11T07:15:45.467Z,19.90
2023-04-11T07:18:16.043Z,23.02
2023-04-11T07:20:44.230Z,19.13
2023-04-11T07:23:16.596Z,18.55
2023-04-11T07:25:45.122Z,21.52
2023-04-11T07:28:18.409Z,18.98
2023-04-11T07:30:47.046Z,18.58
2023-04-11T07:33:16.974Z,16.48
2023-04-11T07:36:01.476Z,16.35
2023-04-11T07:38:31.461Z,22.83
2023-04-11T07:41:04.425Z,18.80
2023-04-11T07:43:35.007Z,16.67
2023-04-11T07:46:04.000Z,18.25
2023-04-11T07:48:34.186Z,18.55
2023-04-11T07:51:02.397Z,14.88
2023-04-11T07:53:32.875Z,20.45
2023-04-11T07:56:05.239Z,18.52
2023-04-11T07:58:33.804Z,17.38
2023-04-11T08:01:02.925Z,15.35
2023-04-11T08:03:33.777Z,27.35
2023-04-11T08:06:02.441Z,16.63
2023-04-11T08:08:38.326Z,15.75
2023-04-11T08:11:06.824Z,13.05
2023-04-11T08:13:35.326Z,17.40
2023-04-11T08:16:10.226Z,16.85
2023-04-11T08:18:42.438Z,11.77
2023-04-11T08:21:16.391Z,17.63
2023-04-11T08:23:52.632Z,12.73
2023-04-11T08:26:21.443Z,12.75
2023-04-11T08:28:49.898Z,21.42
2023-04-11T08:31:18.751Z,19.35
2023-04-11T08:33:47.665Z,15.05
2023-04-11T08:36:16.144Z,17.98
2023-04-11T08:38:50.981Z,15.57
2023-04-11T08:41:19.116Z,16.35
2023-04-11T08:43:48.165Z,18.13
2023-04-11T08:46:18.683Z,17.05
2023-04-11T08:48:48.319Z,14.00
2023-04-11T08:51:24.779Z,12.75
2023-04-11T08:56:25.113Z,17.35
2023-04-11T08:58:53.495Z,15.77
2023-04-11T09:01:37.594Z,11.35
2023-04-11T09:04:10.480Z,19.90
2023-04-11T09:06:40.481Z,12.50
2023-04-11T09:09:12.222Z,12.77
2023-04-11T09:11:54.594Z,11.52
2023-04-11T09:14:25.447Z,15.05
2023-04-11T09:17:02.744Z,13.38
2023-04-11T09:19:36.091Z,11.45
2023-04-11T09:22:06.719Z,12.23
2023-04-11T09:24:35.751Z,17.52
2023-04-11T09:27:13.912Z,9.43
2023-04-11T09:29:43.530Z,12.20
2023-04-11T09:32:33.549Z,14.95
2023-04-11T09:35:09.938Z,12.57
2023-04-11T09:38:06.557Z,7.85
2023-04-11T09:40:48.801Z,17.45
2023-04-11T09:43:19.886Z,15.07
2023-04-11T09:45:54.879Z,12.63
2023-04-11T09:48:32.013Z,10.75
2023-04-11T09:51:15.853Z,12.10
2023-04-11T09:54:32.572Z,10.32
2023-04-11T09:57:01.844Z,15.32
2023-04-11T09:59:31.395Z,14.13
2023-04-11T10:02:00.008Z,11.50
2023-04-11T10:04:28.973Z,12.90
2023-04-11T10:07:30.108Z,13.73
2023-04-11T10:10:00.607Z,14.80
2023-04-11T10:12:38.693Z,15.77
2023-04-11T10:15:16.766Z,11.52
2023-04-11T10:18:07.696Z,14.38
2023-04-11T10:20:43.601Z,15.32
2023-04-11T10:23:14.517Z,10.15
2023-04-11T10:25:58.594Z,11.45
2023-04-11T10:28:38.699Z,17.30
2023-04-11T10:31:10.429Z,8.57
2023-04-11T10:33:40.579Z,10.07
2023-04-11T10:36:12.973Z,12.02
2023-04-11T10:38:44.230Z,14.93
2023-04-11T10:41:19.610Z,12.82
2023-04-11T10:43:48.434Z,14.35
2023-04-11T10:46:24.197Z,13.82
2023-04-11T10:49:01.966Z,10.65
2023-04-11T10:51:32.717Z,17.92
2023-04-11T10:54:02.599Z,7.85
2023-04-11T10:56:43.209Z,9.15
2023-04-11T10:59:34.605Z,9.20
2023-04-11T11:02:12.289Z,16.23
2023-04-11T11:04:41.143Z,13.43
2023-04-11T11:07:23.112Z,9.75
2023-04-11T11:09:52.524Z,12.82
2023-04-11T11:12:20.548Z,12.52
2023-04-11T11:14:54.737Z,10.73
2023-04-11T11:17:23.857Z,7.50
2023-04-11T11:19:52.753Z,6.93
2023-04-11T11:22:28.939Z,10.68
2023-04-11T11:25:07.947Z,10.90
2023-04-11T11:27:38.817Z,13.00
2023-04-11T11:30:11.774Z,13.88
2023-04-11T11:32:40.741Z,16.63
2023-04-11T11:35:14.074Z,7.65
2023-04-11T11:37:42.196Z,11.68
2023-04-11T11:40:13.554Z,8.48
2023-04-11T11:42:42.572Z,20.00
2023-04-11T11:45:21.574Z,9.18
2023-04-11T11:47:50.726Z,12.30
2023-04-11T11:50:34.883Z,18.70
2023-04-11T11:53:15.722Z,12.23
2023-04-11T11:55:44.089Z,11.90
2023-04-11T11:58:12.966Z,7.47
2023-04-11T12:00:42.211Z,7.95
2023-04-11T12:03:12.078Z,13.55
2023-04-11T12:05:42.750Z,9.43
2023-04-11T12:08:11.168Z,8.23
2023-04-11T12:10:42.305Z,9.18
2023-04-11T12:13:16.724Z,10.00
2023-04-11T12:16:04.847Z,7.47
2023-04-11T12:18:34.722Z,13.70
2023-04-11T12:21:05.723Z,16.17
2023-04-11T12:23:34.278Z,12.68
2023-04-11T12:26:05.335Z,10.30
2023-04-11T12:28:34.530Z,18.10
2023-04-11T12:31:05.234Z,10.80
2023-04-11T12:33:34.690Z,10.00
2023-04-11T12:36:03.016Z,15.43
2023-04-11T12:38:34.271Z,14.55
2023-04-11T12:41:29.694Z,8.55
2023-04-11T12:43:52.073Z,8.98
2023-04-11T12:46:23.122Z,18.95
2023-04-11T12:48:51.950Z,23.15
2023-04-11T12:51:21.088Z,10.68
2023-04-11T12:53:49.300Z,10.55
2023-04-11T12:56:20.870Z,17.73
2023-04-11T12:58:50.905Z,14.07
2023-04-11T13:01:19.897Z,11.77
2023-04-11T13:03:53.351Z,16.15
2023-04-11T13:06:23.559Z,10.88
2023-04-11T13:08:52.095Z,14.25
2023-04-11T13:11:20.246Z,13.27
2023-04-11T13:13:51.816Z,13.80
2023-04-11T13:16:20.217Z,20.48
2023-04-11T13:18:51.016Z,15.27
2023-04-11T13:21:19.950Z,21.17
2023-04-11T13:23:54.227Z,13.32
2023-04-11T13:26:23.373Z,11.45
2023-04-11T13:28:55.474Z,9.90
2023-04-11T13:31:26.689Z,11.50
2023-04-11T13:34:02.365Z,18.73
2023-04-11T13:36:32.423Z,11.48
2023-04-11T13:39:00.833Z,15.98
2023-04-11T13:41:32.959Z,16.33
2023-04-11T13:44:01.137Z,16.20
2023-04-11T13:46:29.360Z,15.68
2023-04-11T13:49:00.995Z,9.48
2023-04-11T13:51:31.175Z,12.05
2023-04-11T13:54:07.905Z,12.65
2023-04-11T13:56:38.055Z,12.90
2023-04-11T13:59:06.454Z,18.40
2023-04-11T14:01:40.025Z,16.80
2023-04-11T14:04:09.993Z,17.83
2023-04-11T14:07:02.189Z,14.65
2023-04-11T14:09:30.700Z,15.15
2023-04-11T14:11:59.052Z,19.30
2023-04-11T14:14:32.898Z,12.43
2023-04-11T14:17:01.483Z,12.40
2023-04-11T14:19:29.957Z,15.20
2023-04-11T14:22:00.164Z,13.77
2023-04-11T14:24:28.790Z,13.90
2023-04-11T14:27:05.397Z,13.93
2023-04-11T14:29:42.632Z,7.88
2023-04-11T14:32:13.545Z,8.38
2023-04-11T14:34:48.541Z,10.15
2023-04-11T14:37:20.600Z,10.68
2023-04-11T14:40:27.148Z,9.18
2023-04-11T14:42:58.724Z,11.70
2023-04-11T14:45:33.367Z,10.00
2023-04-11T14:48:02.175Z,7.93
2023-04-11T14:50:31.056Z,8.98
2023-04-11T14:52:59.504Z,14.32
2023-04-11T14:55:27.793Z,10.38
2023-04-11T14:58:00.978Z,8.15
2023-04-11T15:00:30.301Z,7.30
2023-04-11T15:03:06.235Z,16.20
2023-04-11T15:05:35.372Z,12.27
2023-04-11T15:08:09.440Z,13.20
2023-04-11T15:10:37.795Z,12.98
2023-04-11T15:13:16.055Z,10.73
2023-04-11T15:15:48.768Z,10.48
2023-04-11T15:18:23.523Z,8.30
2023-04-11T15:20:54.957Z,10.77
2023-04-11T15:23:29.331Z,10.43
2023-04-11T15:26:03.953Z,13.45
2023-04-11T15:28:36.483Z,7.32
2023-04-11T15:31:08.328Z,10.20
2023-04-11T15:33:38.449Z,15.65
2023-04-11T15:36:10.886Z,8.85
2023-04-11T15:38:39.364Z,11.88
2023-04-11T15:41:07.865Z,11.80
2023-04-11T15:43:38.849Z,13.45
2023-04-11T15:46:08.958Z,7.20
2023-04-11T15:48:42.782Z,8.60
2023-04-11T15:51:11.357Z,9.20
2023-04-11T15:53:41.641Z,8.75
2023-04-11T15:56:09.920Z,9.60
2023-04-11T15:58:38.354Z,11.98
2023-04-11T16:01:25.399Z,11.00
2023-04-11T16:04:00.269Z,14.25
2023-04-11T16:06:28.621Z,12.68
2023-04-11T16:08:56.798Z,11.98
2023-04-11T16:11:28.642Z,17.13
2023-04-11T16:13:58.211Z,11.50
2023-04-11T16:16:27.167Z,13.27
2023-04-11T16:18:57.033Z,15.77
2023-04-11T16:21:27.715Z,13.45
2023-04-11T16:24:01.017Z,11.23
2023-04-11T16:26:52.558Z,13.77
2023-04-11T16:29:20.872Z,19.35
2023-04-11T16:31:50.106Z,17.08
2023-04-11T16:34:21.571Z,16.65
2023-04-11T16:36:53.107Z,17.48
2023-04-11T16:39:22.224Z,21.45
2023-04-11T16:41:54.301Z,22.38
2023-04-11T16:44:25.209Z,24.52
2023-04-11T16:46:53.668Z,27.17
2023-04-11T16:49:21.822Z,24.30
2023-04-11T16:51:50.104Z,23.48
2023-04-11T16:54:27.792Z,22.27
2023-04-11T16:56:56.087Z,21.20
2023-04-11T16:59:27.323Z,14.43
2023-04-11T17:01:57.355Z,17.27
2023-04-11T17:04:27.802Z,18.05
2023-04-11T17:06:57.579Z,17.50
2023-04-11T17:09:27.847Z,14.70
2023-04-11T17:11:56.698Z,14.38
2023-04-11T17:14:45.885Z,17.42
2023-04-11T17:17:14.036Z,19.08
2023-04-11T17:19:42.434Z,10.52
2023-04-11T17:22:12.217Z,13.25
2023-04-11T17:24:40.827Z,10.40
2023-04-11T17:27:10.956Z,14.57
2023-04-11T17:29:39.440Z,12.25
2023-04-11T17:32:10.623Z,15.43
2023-04-11T17:34:38.877Z,16.92
2023-04-11T17:37:08.286Z,18.48
2023-04-11T17:39:39.092Z,13.75
2023-04-11T17:42:17.321Z,15.93
2023-04-11T17:44:45.534Z,10.50
2023-04-11T17:47:13.550Z,14.00
2023-04-11T17:49:43.644Z,15.80
2023-04-11T17:52:11.822Z,18.30
2023-04-11T17:54:44.366Z,13.88
2023-04-11T17:57:13.459Z,18.52
2023-04-11T17:59:43.064Z,23.02
2023-04-11T18:02:12.230Z,14.60
2023-04-11T18:04:45.286Z,16.67
2023-04-11T18:07:14.396Z,14.73
2023-04-11T18:09:43.337Z,17.52
2023-04-11T18:12:12.533Z,17.98
2023-04-11T18:14:44.259Z,12.18
2023-04-11T18:17:12.927Z,24.00
2023-04-11T18:19:41.570Z,15.57
2023-04-11T18:22:12.887Z,9.23
2023-04-11T18:24:42.260Z,14.43
2023-04-11T18:27:19.537Z,12.98
2023-04-11T18:29:55.930Z,14.68
2023-04-11T18:32:50.144Z,26.00
2023-04-11T18:39:23.117Z,16.63
2023-04-11T18:41:54.872Z,16.13
2023-04-11T18:44:24.411Z,19.92
2023-04-11T18:47:06.132Z,19.00
2023-04-11T18:49:44.691Z,15.18
2023-04-11T18:52:16.883Z,17.15
2023-04-11T18:54:50.511Z,15.75
2023-04-11T18:57:19.005Z,16.27
2023-04-11T18:59:51.326Z,20.92
2023-04-11T19:02:25.130Z,17.52
2023-04-11T19:04:56.943Z,24.63
2023-04-11T19:07:26.514Z,19.30
2023-04-11T19:10:03.412Z,25.45
2023-04-11T19:12:48.822Z,21.25
2023-04-11T19:15:18.180Z,17.92
2023-04-11T19:17:50.705Z,15.25
2023-04-11T19:20:39.907Z,18.15
2023-04-11T19:23:40.546Z,16.63
2023-04-11T19:26:11.465Z,21.17
2023-04-11T19:28:46.493Z,17.77
2023-04-11T19:31:14.884Z,27.80
2023-04-11T19:33:46.506Z,21.55
2023-04-11T19:36:20.485Z,19.35
2023-04-11T19:39:09.358Z,18.67
2023-04-11T19:41:46.324Z,29.17
2023-04-11T19:44:17.806Z,28.65
2023-04-11T19:46:48.774Z,35.10
2023-04-11T19:49:17.433Z,36.20
2023-04-11T19:51:46.138Z,38.22
2023-04-11T19:54:23.427Z,37.40
2023-04-11T19:56:55.439Z,42.65
2023-04-11T19:59:23.852Z,36.95
2023-04-11T20:01:53.890Z,39.60
2023-04-11T20:04:23.417Z,47.25
2023-04-11T20:07:31.776Z,52.35
2023-04-11T20:10:13.335Z,67.20
2023-04-11T20:12:44.730Z,80.25
2023-04-11T20:15:12.970Z,69.38
2023-04-11T20:17:53.784Z,70.93
2023-04-11T20:20:26.717Z,71.10
2023-04-11T20:22:57.869Z,62.42
2023-04-11T20:25:27.573Z,59.75
2023-04-11T20:27:58.459Z,60.63
2023-04-11T20:30:27.239Z,65.05
2023-04-11T20:32:56.817Z,47.20
2023-04-11T20:35:25.662Z,35.75
2023-04-11T20:37:54.678Z,24.77
2023-04-11T20:40:23.029Z,25.00
2023-04-11T20:42:57.331Z,19.38
2023-04-11T20:45:30.033Z,29.23
2023-04-11T20:48:02.023Z,15.85
2023-04-11T20:50:37.636Z,17.25
2023-04-11T20:53:08.179Z,16.38
2023-04-11T20:55:36.278Z,17.15
2023-04-11T20:58:08.983Z,20.20
2023-04-11T21:00:40.975Z,20.80
2023-04-11T21:03:12.172Z,22.48
2023-04-11T21:05:44.509Z,23.08
2023-04-11T21:08:46.163Z,25.55
2023-04-11T21:11:14.053Z,27.48
2023-04-11T21:13:45.739Z,19.65
2023-04-11T21:16:15.141Z,20.13
2023-04-11T21:18:43.436Z,19.20
2023-04-11T21:21:11.585Z,24.63
2023-04-11T21:23:43.579Z,23.42
2023-04-11T21:26:21.744Z,28.02
2023-04-11T21:28:51.919Z,20.25
2023-04-11T21:31:46.641Z,22.27
2023-04-11T21:34:16.843Z,21.15
2023-04-11T21:36:45.512Z,22.58
2023-04-11T21:39:19.484Z,29.27
2023-04-11T21:41:48.294Z,32.30
2023-04-11T21:44:18.712Z,31.10
2023-04-11T21:46:48.155Z,39.30
2023-04-11T21:49:16.442Z,50.38
2023-04-11T21:51:46.571Z,63.88
2023-04-11T21:54:19.326Z,49.60
2023-04-11T21:56:47.742Z,57.35
2023-04-11T21:59:16.414Z,63.80
2023-04-11T22:01:44.678Z,64.65
2023-04-11T22:04:13.204Z,47.65
2023-04-11T22:06:47.597Z,45.83
2023-04-11T22:09:18.431Z,51.38
2023-04-11T22:11:47.069Z,52.67
2023-04-11T22:14:28.804Z,52.83
2023-04-11T22:16:58.460Z,65.78
2023-04-11T22:19:28.870Z,57.78
2023-04-11T22:22:05.745Z,50.38
2023-04-11T22:24:34.733Z,72.72
2023-04-11T22:27:05.811Z,67.07
2023-04-11T22:29:35.839Z,51.97
2023-04-11T22:32:04.611Z,56.15
2023-04-11T22:34:32.949Z,43.30
2023-04-11T22:37:01.706Z,53.83
2023-04-11T22:39:30.417Z,50.65
2023-04-11T22:41:59.594Z,42.85
2023-04-11T22:44:32.811Z,38.97
2023-04-11T22:47:08.784Z,36.60
2023-04-11T22:49:40.721Z,36.20
2023-04-11T22:52:10.981Z,49.60
2023-04-11T22:54:40.779Z,39.65
2023-04-11T22:57:14.075Z,45.47
2023-04-11T22:59:42.883Z,44.65
2023-04-11T23:02:11.150Z,35.22
2023-04-11T23:04:39.571Z,38.00
2023-04-11T23:07:08.807Z,33.50
2023-04-11T23:09:37.734Z,36.40
2023-04-11T23:12:10.800Z,27.08
2023-04-11T23:14:39.639Z,24.90
2023-04-11T23:17:09.636Z,24.98
2023-04-11T23:19:42.551Z,26.90
2023-04-11T23:22:12.637Z,27.40
2023-04-11T23:24:41.142Z,27.60
2023-04-11T23:27:10.277Z,30.55
2023-04-11T23:29:39.436Z,22.70
2023-04-11T23:32:07.906Z,25.13
2023-04-11T23:34:39.077Z,25.30
2023-04-11T23:37:08.006Z,24.75
2023-04-11T23:39:36.928Z,32.22
2023-04-11T23:42:07.867Z,24.90
2023-04-11T23:44:36.049Z,26.08
2023-04-11T23:47:08.771Z,29.48
2023-04-11T23:49:38.056Z,26.38
2023-04-11T23:52:07.707Z,32.45
2023-04-11T23:54:38.385Z,25.70
2023-04-11T23:57:06.427Z,26.50
2023-04-11T23:59:34.410Z,33.05
